createdAt,value
2017-12-22T00:01:15.158Z,5.03
2017-12-22T00:03:47.622Z,6.00
2017-12-22T00:06:27.971Z,4.73
2017-12-22T00:09:01.192Z,4.23
2017-12-22T00:11:32.953Z,5.80
2017-12-22T00:14:05.827Z,4.77
2017-12-22T00:16:39.657Z,6.77
2017-12-22T00:19:18.850Z,4.90
2017-12-22T00:21:53.446Z,5.57
2017-12-22T00:24:25.898Z,5.57
2017-12-22T00:26:59.755Z,6.93
2017-12-22T00:29:33.991Z,6.33
2017-12-22T00:32:09.363Z,5.67
2017-12-22T00:34:44.541Z,5.93
2017-12-22T00:37:20.063Z,5.87
2017-12-22T00:39:53.561Z,6.33
2017-12-22T00:42:26.925Z,5.73
2017-12-22T00:44:59.108Z,6.33
2017-12-22T00:47:36.677Z,6.67
2017-12-22T00:50:13.123Z,8.60
2017-12-22T00:52:45.021Z,7.07
2017-12-22T00:55:21.246Z,6.73
2017-12-22T00:57:53.634Z,7.40
2017-12-22T01:00:30.412Z,6.97
2017-12-22T01:03:05.654Z,7.43
2017-12-22T01:05:40.988Z,7.57
2017-12-22T01:08:14.197Z,6.77
2017-12-22T01:10:46.590Z,7.27
2017-12-22T01:13:22.370Z,6.50
2017-12-22T01:15:59.414Z,6.50
2017-12-22T01:19:36.622Z,8.33
2017-12-22T01:22:09.078Z,6.60
2017-12-22T01:24:42.917Z,6.07
2017-12-22T01:27:16.699Z,6.20
2017-12-22T01:29:49.715Z,7.00
2017-12-22T01:32:26.108Z,7.23
2017-12-22T01:34:59.118Z,6.03
2017-12-22T01:37:32.265Z,6.93
2017-12-22T01:40:07.574Z,5.63
2017-12-22T01:42:42.213Z,4.87
2017-12-22T01:45:17.664Z,5.77
2017-12-22T01:47:51.847Z,7.30
2017-12-22T01:50:27.659Z,5.50
2017-12-22T01:53:02.339Z,5.07
2017-12-22T01:55:36.304Z,5.63
2017-12-22T01:58:11.535Z,5.93
2017-12-22T02:00:43.339Z,5.47
2017-12-22T02:03:18.049Z,6.37
2017-12-22T02:05:52.050Z,6.20
2017-12-22T02:08:27.547Z,4.67
2017-12-22T02:11:00.796Z,5.33
2017-12-22T02:13:34.833Z,5.73
2017-12-22T02:16:07.005Z,6.30
2017-12-22T02:18:43.059Z,6.03
2017-12-22T02:21:15.636Z,6.03
2017-12-22T02:23:49.566Z,6.67
2017-12-22T02:26:24.774Z,5.63
2017-12-22T02:29:00.071Z,4.80
2017-12-22T02:31:33.076Z,4.33
2017-12-22T02:34:06.765Z,5.00
2017-12-22T02:36:41.110Z,7.13
2017-12-22T02:39:12.900Z,4.47
2017-12-22T02:41:46.774Z,5.47
2017-12-22T02:44:19.972Z,5.37
2017-12-22T02:46:53.945Z,8.83
2017-12-22T02:49:28.367Z,4.80
2017-12-22T02:52:04.143Z,5.07
2017-12-22T02:54:35.613Z,7.93
2017-12-22T02:57:09.156Z,5.10
2017-12-22T02:59:42.087Z,4.37
2017-12-22T03:02:14.553Z,6.47
2017-12-22T03:04:46.622Z,5.10
2017-12-22T03:07:18.634Z,5.47
2017-12-22T03:09:51.318Z,5.27
2017-12-22T03:12:25.474Z,5.80
2017-12-22T03:14:58.664Z,6.17
2017-12-22T03:17:32.208Z,6.33
2017-12-22T03:20:05.904Z,5.47
2017-12-22T03:22:39.906Z,4.53
2017-12-22T03:25:12.712Z,5.03
2017-12-22T03:27:45.179Z,3.90
2017-12-22T03:30:19.435Z,7.73
2017-12-22T03:32:51.986Z,6.27
2017-12-22T03:35:26.404Z,4.53
2017-12-22T03:38:00.990Z,4.67
2017-12-22T03:40:33.857Z,5.37
2017-12-22T03:43:08.698Z,6.17
2017-12-22T03:45:43.952Z,4.97
2017-12-22T03:48:19.224Z,7.47
2017-12-22T03:50:53.100Z,5.47
2017-12-22T03:53:27.343Z,4.07
2017-12-22T03:56:00.896Z,5.53
2017-12-22T03:58:34.618Z,6.13
2017-12-22T04:01:07.374Z,4.33
2017-12-22T04:03:40.663Z,4.47
2017-12-22T04:06:16.310Z,4.90
2017-12-22T04:08:53.878Z,5.40
2017-12-22T04:11:29.225Z,6.17
2017-12-22T04:14:05.031Z,3.77
2017-12-22T04:16:42.011Z,4.70
2017-12-22T04:19:20.440Z,5.00
2017-12-22T04:21:57.262Z,5.47
2017-12-22T04:24:30.713Z,5.77
2017-12-22T04:27:04.618Z,3.47
2017-12-22T04:29:37.955Z,3.77
2017-12-22T04:32:11.254Z,3.57
2017-12-22T04:34:44.380Z,5.57
2017-12-22T04:37:17.411Z,5.47
2017-12-22T04:39:52.445Z,4.23
2017-12-22T04:42:24.070Z,6.90
2017-12-22T04:44:55.923Z,3.63
2017-12-22T04:47:29.253Z,6.57
2017-12-22T04:50:02.843Z,8.10
2017-12-22T04:52:35.712Z,7.57
2017-12-22T04:55:09.050Z,3.70
2017-12-22T04:57:42.869Z,3.77
2017-12-22T05:00:15.471Z,3.77
2017-12-22T05:02:50.176Z,3.57
2017-12-22T05:05:23.645Z,5.57
2017-12-22T05:07:56.207Z,5.10
2017-12-22T05:10:28.499Z,3.60
2017-12-22T05:13:06.938Z,6.20
2017-12-22T05:15:43.463Z,3.67
2017-12-22T05:18:15.787Z,4.40
2017-12-22T05:20:49.430Z,4.17
2017-12-22T05:23:24.054Z,4.97
2017-12-22T05:25:59.286Z,3.97
2017-12-22T05:28:31.549Z,3.40
2017-12-22T05:31:05.642Z,3.77
2017-12-22T05:33:38.334Z,3.00
2017-12-22T05:36:15.330Z,3.97
2017-12-22T05:38:49.953Z,5.17
2017-12-22T05:41:22.367Z,3.90
2017-12-22T05:43:54.077Z,4.47
2017-12-22T05:46:28.290Z,5.57
2017-12-22T05:49:01.127Z,3.87
2017-12-22T05:51:33.854Z,3.83
2017-12-22T05:54:06.179Z,5.03
2017-12-22T05:56:43.810Z,8.13
2017-12-22T05:59:16.934Z,3.67
2017-12-22T06:01:52.055Z,4.33
2017-12-22T06:04:25.690Z,4.90
2017-12-22T06:06:59.208Z,4.03
2017-12-22T06:09:33.730Z,4.40
2017-12-22T06:12:10.567Z,5.77
2017-12-22T06:14:44.594Z,4.57
2017-12-22T06:17:19.276Z,5.20
2017-12-22T06:19:51.342Z,4.93
2017-12-22T06:22:25.664Z,4.47
2017-12-22T06:25:00.303Z,3.80
2017-12-22T06:27:32.534Z,3.30
2017-12-22T06:30:07.919Z,3.90
2017-12-22T06:32:41.798Z,5.87
2017-12-22T06:35:17.969Z,3.23
2017-12-22T06:38:03.070Z,3.73
2017-12-22T06:40:36.869Z,7.05
2017-12-22T06:43:09.827Z,3.93
2017-12-22T06:45:48.390Z,3.83
2017-12-22T06:48:20.818Z,6.27
2017-12-22T06:51:01.484Z,4.97
2017-12-22T06:53:36.604Z,4.73
2017-12-22T06:56:10.331Z,4.53
2017-12-22T06:58:44.024Z,5.80
2017-12-22T07:01:17.404Z,3.80
2017-12-22T07:03:53.199Z,5.27
2017-12-22T07:06:26.943Z,5.70
2017-12-22T07:09:06.383Z,4.37
2017-12-22T07:11:39.824Z,4.87
2017-12-22T07:14:18.053Z,7.77
2017-12-22T07:16:53.982Z,5.40
2017-12-22T07:19:26.827Z,6.73
2017-12-22T07:22:12.133Z,4.47
2017-12-22T07:24:47.932Z,4.27
2017-12-22T07:27:22.252Z,4.40
2017-12-22T07:29:59.472Z,4.60
2017-12-22T07:32:35.476Z,3.23
2017-12-22T07:35:12.540Z,3.73
2017-12-22T07:37:46.745Z,2.97
2017-12-22T07:40:21.540Z,3.20
2017-12-22T07:42:58.863Z,12.83
2017-12-22T07:45:36.325Z,5.10
2017-12-22T07:48:11.722Z,4.00
2017-12-22T07:50:50.135Z,3.40
2017-12-22T07:53:31.284Z,7.40
2017-12-22T07:56:08.995Z,4.43
2017-12-22T07:58:46.710Z,3.60
2017-12-22T08:01:20.579Z,3.47
2017-12-22T08:03:57.466Z,4.57
2017-12-22T08:06:33.527Z,3.87
2017-12-22T08:09:07.008Z,6.33
2017-12-22T08:11:43.430Z,3.83
2017-12-22T08:14:33.713Z,10.07
2017-12-22T08:17:08.079Z,4.40
2017-12-22T08:19:44.864Z,3.87
2017-12-22T08:22:18.739Z,3.60
2017-12-22T08:25:09.032Z,7.37
2017-12-22T08:27:46.726Z,4.80
2017-12-22T08:30:24.835Z,6.60
2017-12-22T08:32:59.292Z,4.60
2017-12-22T08:35:38.342Z,4.27
2017-12-22T08:38:10.589Z,4.70
2017-12-22T08:40:43.888Z,5.23
2017-12-22T08:43:19.998Z,4.70
2017-12-22T08:45:55.514Z,4.57
2017-12-22T08:49:00.311Z,5.37
2017-12-22T08:51:36.298Z,6.87
2017-12-22T08:54:08.615Z,8.00
2017-12-22T08:56:41.491Z,5.27
2017-12-22T08:59:15.443Z,6.13
2017-12-22T09:01:49.351Z,7.67
2017-12-22T09:04:26.394Z,5.43
2017-12-22T09:06:59.044Z,8.40
2017-12-22T09:09:33.858Z,6.57
2017-12-22T09:12:06.991Z,6.37
2017-12-22T09:14:40.182Z,4.07
2017-12-22T09:17:14.510Z,5.93
2017-12-22T09:19:52.014Z,4.57
2017-12-22T09:22:31.706Z,5.13
2017-12-22T09:25:18.673Z,5.27
2017-12-22T09:28:00.937Z,5.67
2017-12-22T09:30:43.171Z,5.83
2017-12-22T09:33:19.110Z,5.47
2017-12-22T09:35:56.256Z,4.33
2017-12-22T09:38:28.698Z,3.67
2017-12-22T09:41:04.392Z,4.23
2017-12-22T09:43:38.443Z,4.87
2017-12-22T09:46:15.080Z,4.30
2017-12-22T09:48:50.695Z,3.60
2017-12-22T09:51:25.968Z,3.50
2017-12-22T09:54:01.143Z,3.53
2017-12-22T09:59:24.060Z,2.77
2017-12-22T10:01:57.922Z,3.27
2017-12-22T10:04:34.998Z,3.90
2017-12-22T10:07:16.545Z,3.97
2017-12-22T10:09:53.774Z,3.70
2017-12-22T10:12:27.357Z,6.07
2017-12-22T10:15:14.357Z,7.33
2017-12-22T10:17:51.444Z,3.43
2017-12-22T10:20:28.202Z,2.90
2017-12-22T10:23:05.403Z,2.97
2017-12-22T10:25:46.114Z,2.80
2017-12-22T10:28:25.941Z,4.30
2017-12-22T10:31:02.143Z,3.80
2017-12-22T10:33:39.406Z,3.47
2017-12-22T10:36:16.884Z,7.33
2017-12-22T10:38:52.762Z,2.47
2017-12-22T10:41:30.858Z,3.40
2017-12-22T10:44:05.602Z,3.23
2017-12-22T10:46:40.995Z,2.30
2017-12-22T10:49:19.804Z,3.50
2017-12-22T10:52:00.381Z,2.53
2017-12-22T10:54:36.695Z,3.50
2017-12-22T10:57:37.116Z,3.17
2017-12-22T11:00:12.807Z,6.20
2017-12-22T11:02:57.806Z,5.63
2017-12-22T11:05:33.218Z,3.13
2017-12-22T11:08:06.174Z,3.53
2017-12-22T11:10:41.595Z,4.23
2017-12-22T11:13:14.250Z,5.63
2017-12-22T11:15:50.713Z,3.30
2017-12-22T11:18:27.465Z,2.90
2017-12-22T11:21:03.160Z,3.63
2017-12-22T11:23:41.199Z,3.20
2017-12-22T11:26:16.638Z,4.10
2017-12-22T11:32:16.873Z,4.10
2017-12-22T11:37:44.374Z,3.30
2017-12-22T11:43:00.808Z,5.23
2017-12-22T11:45:40.103Z,2.67
2017-12-22T11:48:16.375Z,3.00
2017-12-22T11:50:51.730Z,3.83
2017-12-22T11:53:26.328Z,1.20
2017-12-22T11:56:02.796Z,1.33
2017-12-22T11:58:41.670Z,1.52
2017-12-22T12:01:18.125Z,2.77
2017-12-22T12:03:51.644Z,1.97
2017-12-22T12:06:25.593Z,1.90
2017-12-22T12:08:58.783Z,2.03
2017-12-22T12:11:31.091Z,2.30
2017-12-22T12:14:04.310Z,5.30
2017-12-22T12:16:41.708Z,3.20
2017-12-22T12:19:21.879Z,1.43
2017-12-22T12:21:58.230Z,2.63
2017-12-22T12:24:33.491Z,3.63
2017-12-22T12:27:11.760Z,4.43
2017-12-22T12:29:47.935Z,2.50
2017-12-22T12:32:22.991Z,2.80
2017-12-22T12:34:59.027Z,2.00
2017-12-22T12:37:33.567Z,2.03
2017-12-22T12:40:13.695Z,2.40
2017-12-22T12:42:49.567Z,3.10
2017-12-22T12:45:27.292Z,2.77
2017-12-22T12:48:01.280Z,4.60
2017-12-22T12:50:34.663Z,3.50
2017-12-22T12:53:11.668Z,1.67
2017-12-22T12:55:45.797Z,1.30
2017-12-22T12:58:19.055Z,2.10
2017-12-22T13:00:52.122Z,2.97
2017-12-22T13:03:25.729Z,2.53
2017-12-22T13:05:59.139Z,2.90
2017-12-22T13:08:33.935Z,2.53
2017-12-22T13:11:10.404Z,2.63
2017-12-22T13:13:42.781Z,3.70
2017-12-22T13:16:19.182Z,2.53
2017-12-22T13:18:53.082Z,2.23
2017-12-22T13:21:26.720Z,0.90
2017-12-22T13:24:16.478Z,1.53
2017-12-22T13:27:02.855Z,2.73
2017-12-22T13:29:36.964Z,1.37
2017-12-22T13:32:11.625Z,2.60
2017-12-22T13:34:46.719Z,1.23
2017-12-22T13:37:30.299Z,1.53
2017-12-22T13:40:04.135Z,1.50
2017-12-22T13:42:35.669Z,5.20
2017-12-22T13:45:10.634Z,2.70
2017-12-22T13:47:45.563Z,1.87
2017-12-22T13:50:21.307Z,2.33
2017-12-22T13:52:55.244Z,2.43
2017-12-22T13:55:27.754Z,2.83
2017-12-22T13:58:02.993Z,3.33
2017-12-22T14:01:07.575Z,4.97
2017-12-22T14:03:40.667Z,2.97
2017-12-22T14:06:12.907Z,3.43
2017-12-22T14:08:46.778Z,3.10
2017-12-22T14:11:20.940Z,3.57
2017-12-22T14:13:54.427Z,3.40
2017-12-22T14:16:28.844Z,2.50
2017-12-22T14:19:06.970Z,2.30
2017-12-22T14:21:41.839Z,2.13
2017-12-22T14:24:14.052Z,2.83
2017-12-22T14:26:51.709Z,2.50
2017-12-22T14:29:24.320Z,3.27
2017-12-22T14:31:57.968Z,5.80
2017-12-22T14:34:30.707Z,3.57
2017-12-22T14:37:07.309Z,3.30
2017-12-22T14:39:40.226Z,4.40
2017-12-22T14:42:19.451Z,3.10
2017-12-22T14:44:53.513Z,3.27
2017-12-22T14:47:30.742Z,3.50
2017-12-22T14:50:03.695Z,3.53
2017-12-22T14:52:36.617Z,3.40
2017-12-22T14:55:11.500Z,3.37
2017-12-22T14:57:45.837Z,3.00
2017-12-22T15:00:19.271Z,6.97
2017-12-22T15:02:51.912Z,3.47
2017-12-22T15:05:24.979Z,4.73
2017-12-22T15:08:01.087Z,5.83
2017-12-22T15:10:34.352Z,8.17
2017-12-22T15:13:09.209Z,7.00
2017-12-22T15:15:43.587Z,3.17
2017-12-22T15:18:15.632Z,4.20
2017-12-22T15:20:50.157Z,4.77
2017-12-22T15:23:24.224Z,4.30
2017-12-22T15:25:56.538Z,4.13
2017-12-22T15:28:30.866Z,6.00
2017-12-22T15:31:06.817Z,6.47
2017-12-22T15:33:42.454Z,6.33
2017-12-22T15:36:16.193Z,5.97
2017-12-22T15:38:53.222Z,4.27
2017-12-22T15:41:29.355Z,5.63
2017-12-22T15:44:03.579Z,7.47
2017-12-22T15:46:36.028Z,5.43
2017-12-22T15:49:10.999Z,5.97
2017-12-22T15:51:45.671Z,5.77
2017-12-22T15:54:19.155Z,5.50
2017-12-22T15:56:56.543Z,6.23
2017-12-22T15:59:31.790Z,4.97
2017-12-22T16:02:04.747Z,6.57
2017-12-22T16:04:38.286Z,5.20
2017-12-22T16:07:12.770Z,5.93
2017-12-22T16:09:47.687Z,7.73
2017-12-22T16:12:22.291Z,4.63
2017-12-22T16:14:55.144Z,6.60
2017-12-22T16:17:26.715Z,6.63
2017-12-22T16:19:59.209Z,6.37
2017-12-22T16:22:35.876Z,5.37
2017-12-22T16:25:09.114Z,7.70
2017-12-22T16:27:43.064Z,6.50
2017-12-22T16:30:17.341Z,8.83
2017-12-22T16:32:54.491Z,7.63
2017-12-22T16:35:38.567Z,7.13
2017-12-22T16:38:15.263Z,8.03
2017-12-22T16:40:49.855Z,10.60
2017-12-22T16:43:21.842Z,7.77
2017-12-22T16:45:54.200Z,13.20
2017-12-22T16:48:27.555Z,12.83
2017-12-22T16:51:00.891Z,11.40
2017-12-22T16:53:38.600Z,12.37
2017-12-22T16:56:12.995Z,12.30
2017-12-22T16:58:51.435Z,12.47
2017-12-22T17:01:36.680Z,11.60
2017-12-22T17:04:11.133Z,10.63
2017-12-22T17:06:48.225Z,14.30
2017-12-22T17:09:24.496Z,13.27
2017-12-22T17:11:58.283Z,16.80
2017-12-22T17:14:31.133Z,13.47
2017-12-22T17:17:03.660Z,17.90
2017-12-22T17:19:38.463Z,22.83
2017-12-22T17:22:14.555Z,22.20
2017-12-22T17:24:51.439Z,20.53
2017-12-22T17:27:25.467Z,25.20
2017-12-22T17:29:58.026Z,30.17
2017-12-22T17:32:31.075Z,31.87
2017-12-22T17:35:04.485Z,43.13
2017-12-22T17:37:38.189Z,34.90
2017-12-22T17:40:14.135Z,28.00
2017-12-22T17:42:46.703Z,30.87
2017-12-22T17:45:19.402Z,31.80
2017-12-22T17:47:54.199Z,27.73
2017-12-22T17:50:27.372Z,28.40
2017-12-22T17:53:03.141Z,30.53
2017-12-22T17:55:38.439Z,45.83
2017-12-22T17:58:14.795Z,47.83
2017-12-22T18:00:51.033Z,49.33
2017-12-22T18:03:22.866Z,36.03
2017-12-22T18:05:55.341Z,27.63
2017-12-22T18:08:28.982Z,44.13
2017-12-22T18:11:02.147Z,28.27
2017-12-22T18:13:35.964Z,29.50
2017-12-22T18:16:10.316Z,35.50
2017-12-22T18:18:44.440Z,29.10
2017-12-22T18:21:18.063Z,22.83
2017-12-22T18:23:50.685Z,26.13
2017-12-22T18:26:31.699Z,25.90
2017-12-22T18:29:07.225Z,26.07
2017-12-22T18:31:40.355Z,25.60
2017-12-22T18:34:12.279Z,25.67
2017-12-22T18:36:45.325Z,20.50
2017-12-22T18:39:16.458Z,19.87
2017-12-22T18:41:48.544Z,19.67
2017-12-22T18:44:20.138Z,22.17
2017-12-22T18:46:51.386Z,23.03
2017-12-22T18:49:25.126Z,21.93
2017-12-22T18:51:57.768Z,18.50
2017-12-22T18:54:30.002Z,20.07
2017-12-22T18:57:07.462Z,19.80
2017-12-22T18:59:42.071Z,23.53
2017-12-22T19:02:18.153Z,21.03
2017-12-22T19:04:54.483Z,23.33
2017-12-22T19:07:29.709Z,14.97
2017-12-22T19:10:04.434Z,19.33
2017-12-22T19:12:38.099Z,19.23
2017-12-22T19:15:12.735Z,16.63
2017-12-22T19:17:47.322Z,18.47
2017-12-22T19:20:21.617Z,18.53
2017-12-22T19:22:55.122Z,21.07
2017-12-22T19:25:27.362Z,20.33
2017-12-22T19:27:59.675Z,20.37
2017-12-22T19:30:35.037Z,14.30
2017-12-22T19:33:08.149Z,15.57
2017-12-22T19:35:43.619Z,18.30
2017-12-22T19:38:18.400Z,17.27
